createdAt,value
2018-12-17T00:00:07.980Z,100983.50
2018-12-17T00:02:38.868Z,100983.50
2018-12-17T00:05:09.830Z,100982.55
2018-12-17T00:07:40.717Z,100987.42
2018-12-17T00:10:09.984Z,100983.39
2018-12-17T00:12:39.153Z,100988.16
2018-12-17T00:15:08.964Z,100982.39
2018-12-17T00:17:37.966Z,100984.55
2018-12-17T00:20:08.070Z,100979.24
2018-12-17T00:22:36.977Z,100981.39
2018-12-17T00:25:06.568Z,100980.47
2018-12-17T00:27:35.560Z,100970.10
2018-12-17T00:30:05.383Z,100962.64
2018-12-17T00:32:34.320Z,100958.80
2018-12-17T00:35:03.878Z,100958.87
2018-12-17T00:37:32.785Z,100955.03
2018-12-17T00:40:02.200Z,100955.11
2018-12-17T00:42:31.374Z,100956.53
2018-12-17T00:45:00.468Z,100952.69
2018-12-17T00:47:29.340Z,100960.14
2018-12-17T00:49:58.296Z,100958.91
2018-12-17T00:52:27.584Z,100962.83
2018-12-17T00:54:57.432Z,100966.21
2018-12-17T00:57:26.452Z,100958.37
2018-12-17T00:59:55.276Z,100963.06
2018-12-17T01:02:24.227Z,100952.15
2018-12-17T01:04:53.073Z,100955.57
2018-12-17T01:07:26.065Z,100956.88
2018-12-17T01:09:54.898Z,100952.50
2018-12-17T01:12:23.772Z,100947.38
2018-12-17T01:14:52.668Z,100958.30
2018-12-17T01:17:21.564Z,100955.45
2018-12-17T01:19:50.413Z,100959.30
2018-12-17T01:22:19.335Z,100964.06
2018-12-17T01:24:48.232Z,100965.36
2018-12-17T01:27:17.129Z,100969.28
2018-12-17T01:29:46.012Z,100966.28
2018-12-17T01:32:15.128Z,100970.20
2018-12-17T01:34:45.041Z,100972.05
2018-12-17T01:37:13.901Z,100972.66
2018-12-17T01:39:42.794Z,100977.95
2018-12-17T01:42:11.785Z,100980.95
2018-12-17T01:44:41.693Z,100976.96
2018-12-17T01:47:10.599Z,100974.27
2018-12-17T01:49:39.491Z,100977.42
2018-12-17T01:52:08.373Z,100974.81
2018-12-17T01:54:37.977Z,100970.89
2018-12-17T01:57:06.879Z,100969.73
2018-12-17T01:59:35.861Z,100960.59
2018-12-17T02:02:04.809Z,100963.73
2018-12-17T02:04:33.665Z,100967.84
2018-12-17T02:07:02.553Z,100962.77
2018-12-17T02:09:31.360Z,100960.69
2018-12-17T02:12:00.317Z,100962.91
2018-12-17T02:14:29.204Z,100963.06
2018-12-17T02:16:58.154Z,100960.25
2018-12-17T02:19:26.983Z,100958.17
2018-12-17T02:21:55.882Z,100964.62
2018-12-17T02:24:24.762Z,100968.09
2018-12-17T02:26:53.633Z,100970.31
2018-12-17T02:29:22.586Z,100981.22
2018-12-17T02:31:51.418Z,100975.15
2018-12-17T02:34:20.397Z,100982.98
2018-12-17T02:36:49.422Z,100991.73
2018-12-17T02:39:18.319Z,101001.80
2018-12-17T02:41:47.212Z,100994.80
2018-12-17T02:44:16.480Z,100992.58
2018-12-17T02:46:45.293Z,100994.73
2018-12-17T02:49:14.504Z,101003.48
2018-12-17T02:51:43.461Z,101000.10
2018-12-17T02:54:12.464Z,101005.33
2018-12-17T02:56:41.299Z,101008.47
2018-12-17T02:59:10.927Z,101003.78
2018-12-17T03:01:39.769Z,101014.16
2018-12-17T03:04:08.750Z,101010.16
2018-12-17T03:06:37.636Z,101010.86
2018-12-17T03:09:07.800Z,101016.47
2018-12-17T03:11:38.609Z,101021.45
2018-12-17T03:14:07.545Z,101022.98
2018-12-17T03:16:36.624Z,101022.07
2018-12-17T03:19:05.917Z,101018.92
2018-12-17T03:21:35.304Z,101018.08
2018-12-17T03:24:04.479Z,101018.39
2018-12-17T03:26:34.880Z,101023.61
2018-12-17T03:29:03.911Z,101020.47
2018-12-17T03:31:33.037Z,101019.16
2018-12-17T03:34:02.122Z,101022.31
2018-12-17T03:36:30.996Z,101021.92
2018-12-17T03:38:59.872Z,101026.16
2018-12-17T03:41:28.772Z,101024.92
2018-12-17T03:43:57.668Z,101023.23
2018-12-17T03:46:26.553Z,101028.45
2018-12-17T03:48:55.452Z,101030.67
2018-12-17T03:51:24.353Z,101028.60
2018-12-17T03:53:53.212Z,101032.45
2018-12-17T03:56:22.109Z,101036.44
2018-12-17T03:58:51.006Z,101048.19
2018-12-17T04:01:19.911Z,101036.89
2018-12-17T04:03:49.091Z,101036.82
2018-12-17T04:06:17.961Z,101034.21
2018-12-17T04:08:46.875Z,101029.76
2018-12-17T04:11:15.753Z,101038.97
2018-12-17T04:13:44.610Z,101033.67
2018-12-17T04:16:13.433Z,101038.91
2018-12-17T04:18:42.320Z,101040.59
2018-12-17T04:21:11.154Z,101041.83
2018-12-17T04:23:39.992Z,101043.06
2018-12-17T04:26:10.876Z,101040.34
2018-12-17T04:28:39.731Z,101040.34
2018-12-17T04:31:11.795Z,101044.96
2018-12-17T04:33:40.769Z,101040.05
2018-12-17T04:36:09.700Z,101043.44
2018-12-17T04:38:38.678Z,101045.05
2018-12-17T04:41:07.702Z,101044.98
2018-12-17T04:43:36.662Z,101042.64
2018-12-17T04:46:07.206Z,101043.03
2018-12-17T04:48:36.193Z,101044.65
2018-12-17T04:51:06.568Z,101043.19
2018-12-17T04:53:35.420Z,101049.19
2018-12-17T04:56:04.277Z,101056.80
2018-12-17T04:58:33.093Z,101060.55
2018-12-17T05:01:02.105Z,101061.31
2018-12-17T05:03:32.116Z,101068.63
2018-12-17T05:06:00.975Z,101062.02
2018-12-17T05:08:29.855Z,101061.94
2018-12-17T05:10:58.753Z,101064.78
2018-12-17T05:13:27.610Z,101061.25
2018-12-17T05:15:56.536Z,101065.91
2018-12-17T05:18:25.416Z,101071.45
2018-12-17T05:20:54.325Z,101071.37
2018-12-17T05:23:23.202Z,101072.14
2018-12-17T05:25:52.105Z,101076.84
2018-12-17T05:28:20.984Z,101080.61
2018-12-17T05:30:49.876Z,101088.75
2018-12-17T05:33:18.908Z,101086.03
2018-12-17T05:35:47.789Z,101086.03
2018-12-17T05:38:16.655Z,101088.65
2018-12-17T05:40:45.546Z,101089.73
2018-12-17T05:43:14.436Z,101096.11
2018-12-17T05:45:43.345Z,101096.03
2018-12-17T05:48:12.277Z,101105.04
2018-12-17T05:50:41.485Z,101098.31
2018-12-17T05:53:10.348Z,101098.70
2018-12-17T05:55:39.221Z,101105.55
2018-12-17T05:58:08.177Z,101107.23
2018-12-17T06:00:37.069Z,101104.93
2018-12-17T06:03:06.308Z,101106.62
2018-12-17T06:05:36.088Z,101107.39
2018-12-17T06:08:05.000Z,101114.70
2018-12-17T06:10:34.985Z,101107.63
2018-12-17T06:13:04.387Z,101110.97
2018-12-17T06:15:33.288Z,101119.59
2018-12-17T06:18:02.184Z,101123.90
2018-12-17T06:20:31.062Z,101121.13
2018-12-17T06:22:59.984Z,101118.82
2018-12-17T06:25:28.966Z,101128.28
2018-12-17T06:27:57.957Z,101126.97
2018-12-17T06:30:26.829Z,101130.83
2018-12-17T06:32:55.682Z,101133.44
2018-12-17T06:35:24.534Z,101136.33
2018-12-17T06:37:53.984Z,101137.48
2018-12-17T06:40:22.857Z,101137.18
2018-12-17T06:42:51.713Z,101144.03
2018-12-17T06:45:20.581Z,101143.10
2018-12-17T06:47:49.489Z,101152.56
2018-12-17T06:50:18.348Z,101152.03
2018-12-17T06:52:47.390Z,101154.11
2018-12-17T06:55:16.240Z,101151.95
2018-12-17T06:57:45.480Z,101159.64
2018-12-17T07:00:15.365Z,101161.11
2018-12-17T07:02:44.331Z,101160.57
2018-12-17T07:05:13.225Z,101168.58
2018-12-17T07:07:42.112Z,101174.35
2018-12-17T07:10:10.949Z,101176.35
2018-12-17T07:12:39.904Z,101177.86
2018-12-17T07:15:08.797Z,101178.24
2018-12-17T07:17:37.700Z,101185.09
2018-12-17T07:20:07.073Z,101183.63
2018-12-17T07:22:36.014Z,101186.66
2018-12-17T07:25:05.308Z,101192.80
2018-12-17T07:27:34.172Z,101191.05
2018-12-17T07:30:03.373Z,101194.98
2018-12-17T07:32:32.364Z,101198.83
2018-12-17T07:35:01.307Z,101196.59
2018-12-17T07:37:30.449Z,101207.53
2018-12-17T07:39:59.333Z,101207.91
2018-12-17T07:42:28.232Z,101207.07
2018-12-17T07:44:57.216Z,101213.92
2018-12-17T07:47:26.116Z,101213.27
2018-12-17T07:49:55.715Z,101217.58
2018-12-17T07:52:24.680Z,101218.89
2018-12-17T07:54:53.616Z,101220.50
2018-12-17T07:57:22.543Z,101225.74
2018-12-17T07:59:56.682Z,101231.06
2018-12-17T08:02:22.229Z,101233.52
2018-12-17T08:04:51.084Z,101237.45
2018-12-17T08:07:20.005Z,101230.83
2018-12-17T08:09:48.876Z,101241.69
2018-12-17T08:12:17.776Z,101243.45
2018-12-17T08:14:46.673Z,101246.46
2018-12-17T08:17:15.733Z,101247.61
2018-12-17T08:19:44.784Z,101260.70
2018-12-17T08:22:13.692Z,101261.09
2018-12-17T08:24:42.793Z,101264.45
2018-12-17T08:27:11.636Z,101267.45
2018-12-17T08:29:40.646Z,101268.99
2018-12-17T08:32:10.450Z,101274.61
2018-12-17T08:34:39.255Z,101267.06
2018-12-17T08:37:08.123Z,101270.53
2018-12-17T08:39:37.002Z,101276.54
2018-12-17T08:42:06.148Z,101271.99
2018-12-17T08:44:35.089Z,101280.31
2018-12-17T08:47:04.214Z,101281.63
2018-12-17T08:49:33.036Z,101277.77
2018-12-17T08:52:02.896Z,101281.23
2018-12-17T08:54:31.789Z,101285.17
2018-12-17T08:57:00.787Z,101295.26
2018-12-17T08:59:29.700Z,101293.77
2018-12-17T09:01:58.558Z,101290.45
2018-12-17T09:04:27.440Z,101307.70
2018-12-17T09:06:56.381Z,101301.38
2018-12-17T09:12:22.404Z,101314.06
2018-12-17T09:14:51.265Z,101313.59
2018-12-17T09:17:20.276Z,101317.53
2018-12-17T09:19:49.144Z,101317.91
2018-12-17T09:22:18.032Z,101321.00
2018-12-17T09:24:46.941Z,101320.53
2018-12-17T09:27:15.809Z,101330.24
2018-12-17T09:29:44.704Z,101335.33
2018-12-17T09:32:13.700Z,101341.50
2018-12-17T09:34:42.582Z,101350.67
2018-12-17T09:37:11.633Z,101352.29
2018-12-17T09:39:40.477Z,101357.45
2018-12-17T09:42:09.305Z,101358.61
2018-12-17T09:44:38.377Z,101362.07
2018-12-17T09:47:07.250Z,101361.80
2018-12-17T09:49:36.277Z,101354.71
2018-12-17T09:52:05.638Z,101355.41
2018-12-17T09:54:34.540Z,101361.88
2018-12-17T09:57:03.528Z,101359.48
2018-12-17T09:59:32.497Z,101367.70
2018-12-17T10:02:01.407Z,101362.37
2018-12-17T10:04:30.324Z,101361.91
2018-12-17T10:06:59.197Z,101365.84
2018-12-17T10:09:28.024Z,101374.09
2018-12-17T10:11:56.856Z,101375.87
2018-12-17T10:14:25.811Z,101375.02
2018-12-17T10:16:54.645Z,101372.41
2018-12-17T10:19:23.629Z,101369.23
2018-12-17T10:21:52.471Z,101375.02
2018-12-17T10:24:25.249Z,101377.56
2018-12-17T10:26:54.206Z,101377.48
2018-12-17T10:29:23.200Z,101376.56
2018-12-17T10:31:52.175Z,101375.55
2018-12-17T10:34:21.084Z,101377.25
2018-12-17T10:36:49.957Z,101376.78
2018-12-17T10:39:18.866Z,101376.70
2018-12-17T10:41:47.744Z,101381.88
2018-12-17T10:44:18.613Z,101381.88
2018-12-17T10:46:47.473Z,101376.90
2018-12-17T10:49:16.569Z,101374.58
2018-12-17T10:51:45.420Z,101379.66
2018-12-17T10:54:14.265Z,101383.05
2018-12-17T10:56:43.361Z,101379.89
2018-12-17T10:59:12.242Z,101388.91
2018-12-17T11:01:46.377Z,101380.92
2018-12-17T11:04:21.305Z,101380.38
2018-12-17T11:06:50.173Z,101382.47
2018-12-17T11:09:19.061Z,101390.25
2018-12-17T11:11:47.949Z,101396.27
2018-12-17T11:14:16.856Z,101397.11
2018-12-17T11:16:45.729Z,101390.86
2018-12-17T11:19:14.749Z,101389.38
2018-12-17T11:21:43.720Z,101393.05
2018-12-17T11:24:12.965Z,101391.27
2018-12-17T11:26:41.801Z,101392.50
2018-12-17T11:29:10.889Z,101391.48
2018-12-17T11:31:39.809Z,101392.64
2018-12-17T11:34:08.685Z,101395.83
2018-12-17T11:36:38.256Z,101398.29
2018-12-17T11:39:10.086Z,101400.45
2018-12-17T11:41:40.906Z,101400.28
2018-12-17T11:44:09.760Z,101397.66
2018-12-17T11:46:38.772Z,101391.02
2018-12-17T11:49:07.772Z,101391.23
2018-12-17T11:51:36.652Z,101391.42
2018-12-17T11:54:05.656Z,101399.26
2018-12-17T11:57:50.004Z,101396.09
2018-12-17T12:00:21.738Z,101400.17
2018-12-17T12:02:50.909Z,101406.78
2018-12-17T12:05:19.789Z,101400.80
2018-12-17T12:07:50.272Z,101398.27
2018-12-17T12:10:21.234Z,101403.64
2018-12-17T12:12:50.317Z,101405.16
2018-12-17T12:15:19.297Z,101410.59
2018-12-17T12:17:48.205Z,101406.66
2018-12-17T12:20:17.221Z,101407.59
2018-12-17T12:22:46.168Z,101414.36
2018-12-17T12:25:15.068Z,101407.16
2018-12-17T12:27:43.949Z,101404.78
2018-12-17T12:30:13.368Z,101411.08
2018-12-17T12:32:42.269Z,101402.65
2018-12-17T12:35:12.418Z,101416.27
2018-12-17T12:37:41.253Z,101429.52
2018-12-17T12:40:10.360Z,101424.83
2018-12-17T12:42:39.243Z,101429.33
2018-12-17T12:45:08.245Z,101427.43
2018-12-17T12:47:37.166Z,101437.49
2018-12-17T12:50:07.334Z,101436.70
2018-12-17T12:52:36.343Z,101442.52
2018-12-17T12:55:06.220Z,101458.98
2018-12-17T12:57:36.174Z,101457.09
2018-12-17T13:00:08.349Z,101450.98
2018-12-17T13:02:37.333Z,101457.34
2018-12-17T13:05:06.443Z,101457.89
2018-12-17T13:07:35.621Z,101459.58
2018-12-17T13:10:08.500Z,101455.72
2018-12-17T13:12:37.405Z,101468.18
2018-12-17T13:15:08.145Z,101473.44
2018-12-17T13:17:37.525Z,101473.91
2018-12-17T13:20:08.036Z,101472.45
2018-12-17T13:22:37.347Z,101476.98
2018-12-17T13:25:09.984Z,101485.03
2018-12-17T13:27:39.352Z,101490.37
2018-12-17T13:30:09.777Z,101491.37
2018-12-17T13:32:38.757Z,101491.00
2018-12-17T13:35:08.900Z,101485.66
2018-12-17T13:37:37.775Z,101490.06
2018-12-17T13:40:09.043Z,101489.60
2018-12-17T13:42:38.120Z,101493.08
2018-12-17T13:45:07.530Z,101494.09
2018-12-17T13:47:36.509Z,101498.41
2018-12-17T13:50:10.869Z,101509.38
2018-12-17T13:52:46.189Z,101510.15
2018-12-17T13:55:15.773Z,101516.72
2018-12-17T13:57:44.663Z,101508.84
2018-12-17T14:00:13.860Z,101514.17
2018-12-17T14:02:43.580Z,101511.08
2018-12-17T14:05:13.250Z,101511.24
2018-12-17T14:07:42.182Z,101515.10
2018-12-17T14:11:18.512Z,101515.02
2018-12-17T14:13:47.433Z,101520.66
2018-12-17T14:16:16.585Z,101531.55
2018-12-17T14:18:51.086Z,101526.13
2018-12-17T14:21:25.275Z,101530.83
2018-12-17T14:23:54.158Z,101541.98
2018-12-17T14:26:23.050Z,101535.80
2018-12-17T14:28:51.880Z,101547.93
2018-12-17T14:31:20.764Z,101554.50
2018-12-17T14:33:49.701Z,101561.75
2018-12-17T14:36:18.661Z,101571.16
2018-12-17T14:38:47.592Z,101573.70
2018-12-17T14:41:16.589Z,101578.00
2018-12-17T14:43:45.469Z,101584.57
2018-12-17T14:46:14.675Z,101592.45
2018-12-17T14:48:43.596Z,101601.65
2018-12-17T14:51:12.679Z,101610.49
2018-12-17T14:53:42.592Z,101612.36
2018-12-17T14:56:11.985Z,101621.94
2018-12-17T14:58:44.512Z,101623.71
2018-12-17T15:01:11.737Z,101626.27
2018-12-17T15:03:40.616Z,101624.17
2018-12-17T15:06:09.608Z,101626.61
2018-12-17T15:08:38.494Z,101623.63
2018-12-17T15:11:07.661Z,101622.31
2018-12-17T15:13:36.638Z,101633.18
2018-12-17T15:16:05.666Z,101634.49
2018-12-17T15:18:34.597Z,101638.44
2018-12-17T15:21:03.549Z,101649.72
2018-12-17T15:23:32.559Z,101658.14
2018-12-17T15:26:01.658Z,101663.40
2018-12-17T15:28:30.563Z,101672.13
2018-12-17T15:30:59.403Z,101668.66
2018-12-17T15:33:28.429Z,101673.56
2018-12-17T15:35:57.297Z,101678.81
2018-12-17T15:38:26.200Z,101681.33
2018-12-17T15:40:55.074Z,101680.02
2018-12-17T15:43:24.031Z,101689.67
2018-12-17T15:46:16.195Z,101699.72
2018-12-17T15:58:08.941Z,101734.45
2018-12-17T16:03:56.153Z,101739.41
2018-12-17T16:06:26.396Z,101738.55
2018-12-17T16:11:51.107Z,101721.36
2018-12-17T16:14:28.651Z,101764.06
2018-12-17T16:16:57.470Z,101761.97
2018-12-17T16:22:45.546Z,101772.94
2018-12-17T16:25:14.629Z,101781.21
2018-12-17T16:27:43.520Z,101784.77
2018-12-17T16:30:12.834Z,101780.28
2018-12-17T16:32:41.745Z,101782.06
2018-12-17T16:35:10.656Z,101793.42
2018-12-17T16:37:39.501Z,101793.42
2018-12-17T16:40:08.619Z,101797.37
2018-12-17T16:42:37.589Z,101798.30
2018-12-17T16:45:08.401Z,101803.55
2018-12-17T16:47:37.311Z,101806.17
2018-12-17T16:50:08.669Z,101810.58
2018-12-17T16:52:37.549Z,101802.70
2018-12-17T16:55:06.635Z,101803.55
2018-12-17T16:57:35.516Z,101798.83
2018-12-17T17:00:05.441Z,101800.30
2018-12-17T17:02:35.280Z,101801.80
2018-12-17T17:05:04.381Z,101804.50
2018-12-17T17:07:33.277Z,101804.19
2018-12-17T17:10:05.900Z,101804.26
2018-12-17T17:12:35.223Z,101803.95
2018-12-17T17:15:04.696Z,101812.37
2018-12-17T17:17:33.705Z,101812.37
2018-12-17T17:20:02.544Z,101813.68
2018-12-17T17:22:31.589Z,101814.99
2018-12-17T17:25:00.493Z,101815.30
2018-12-17T17:27:29.412Z,101816.08
2018-12-17T17:29:58.336Z,101817.32
2018-12-17T17:32:27.104Z,101821.65
2018-12-17T17:34:55.996Z,101817.78
2018-12-17T17:37:25.302Z,101827.44
2018-12-17T17:39:54.252Z,101831.53
2018-12-17T17:42:23.114Z,101834.77
2018-12-17T17:44:52.767Z,101837.08
2018-12-17T17:47:21.746Z,101840.27
2018-12-17T17:49:50.583Z,101841.73
2018-12-17T17:52:19.841Z,101844.90
2018-12-17T17:54:48.717Z,101845.19
2018-12-17T17:57:17.605Z,101851.30
2018-12-17T17:59:46.601Z,101854.60
2018-12-17T18:02:18.730Z,101855.13
2018-12-17T18:04:46.314Z,101861.70
2018-12-17T18:07:15.234Z,101861.70
2018-12-17T18:09:44.197Z,101865.64
2018-12-17T18:12:13.072Z,101870.03
2018-12-17T18:14:41.981Z,101877.23
2018-12-17T18:17:10.865Z,101882.09
2018-12-17T18:19:40.788Z,101883.55
2018-12-17T18:22:09.665Z,101892.20
2018-12-17T18:24:38.502Z,101887.09
2018-12-17T18:27:07.345Z,101892.88
2018-12-17T18:29:36.241Z,101893.80
2018-12-17T18:32:05.253Z,101899.51
2018-12-17T18:34:34.127Z,101903.30
2018-12-17T18:37:03.086Z,101899.30
2018-12-17T18:39:31.894Z,101909.66
2018-12-17T18:42:00.797Z,101911.36
2018-12-17T18:44:29.721Z,101909.95
2018-12-17T18:46:58.620Z,101907.25
2018-12-17T18:49:27.580Z,101905.65
2018-12-17T18:51:56.485Z,101916.90
2018-12-17T18:54:25.365Z,101918.31
2018-12-17T18:56:54.388Z,101919.45
2018-12-17T18:59:23.244Z,101925.62
2018-12-17T19:01:52.102Z,101927.78
2018-12-17T19:04:21.133Z,101936.05
2018-12-17T19:06:49.984Z,101943.53
2018-12-17T19:09:18.820Z,101944.45
2018-12-17T19:11:47.872Z,101947.01
2018-12-17T19:14:16.776Z,101947.08
2018-12-17T19:16:46.081Z,101949.17
2018-12-17T19:19:17.330Z,101953.11
2018-12-17T19:21:46.217Z,101957.44
2018-12-17T19:24:15.224Z,101962.69
2018-12-17T19:26:44.220Z,101957.83
2018-12-17T19:29:13.097Z,101963.02
2018-12-17T19:31:42.122Z,101974.75
2018-12-17T19:34:11.149Z,101974.27
2018-12-17T19:36:39.989Z,101969.41
2018-12-17T19:39:08.876Z,101979.84
2018-12-17T19:41:39.712Z,101978.45
2018-12-17T19:44:08.697Z,101987.05
2018-12-17T19:46:37.626Z,101985.27
2018-12-17T19:49:06.868Z,101987.44
2018-12-17T19:51:35.778Z,101986.91
2018-12-17T19:54:04.769Z,101983.82
2018-12-17T19:56:33.864Z,101990.84
2018-12-17T19:59:02.745Z,101991.70
2018-12-17T20:01:31.801Z,101993.08
2018-12-17T20:04:00.733Z,102000.89
2018-12-17T20:06:30.453Z,101994.66
2018-12-17T20:08:59.425Z,101994.72
2018-12-17T20:11:28.348Z,101985.98
2018-12-17T20:13:58.053Z,101990.31
2018-12-17T20:16:26.929Z,101995.18
2018-12-17T20:18:55.778Z,101994.39
2018-12-17T20:21:24.593Z,101992.23
2018-12-17T20:23:54.034Z,101996.70
2018-12-17T20:26:22.908Z,102010.28
2018-12-17T20:28:51.781Z,102006.48
2018-12-17T20:31:20.707Z,102009.80
2018-12-17T20:33:49.680Z,102007.38
2018-12-17T20:36:18.741Z,102010.20
2018-12-17T20:38:47.866Z,102014.91
2018-12-17T20:41:16.684Z,102018.64
2018-12-17T20:43:45.552Z,102019.30
2018-12-17T20:46:14.936Z,102025.08
2018-12-17T20:48:43.842Z,102028.66
2018-12-17T20:51:12.724Z,102029.11
2018-12-17T20:53:41.571Z,102041.22
2018-12-17T20:59:09.317Z,102036.88
2018-12-17T21:01:38.170Z,102046.00
2018-12-17T21:04:07.012Z,102040.69
2018-12-17T21:06:35.865Z,102044.56
2018-12-17T21:09:07.846Z,102035.70
2018-12-17T21:11:38.860Z,102046.53
2018-12-17T21:14:07.762Z,102043.05
2018-12-17T21:16:36.662Z,102043.05
2018-12-17T21:19:05.750Z,102041.41
2018-12-17T21:21:35.360Z,102047.98
2018-12-17T21:24:05.051Z,102048.44
2018-12-17T21:26:34.116Z,102047.58
2018-12-17T21:29:03.067Z,102052.44
2018-12-17T21:31:31.972Z,102045.55
2018-12-17T21:34:00.973Z,102049.48
2018-12-17T21:36:29.814Z,102056.50
2018-12-17T21:38:58.696Z,102046.92
2018-12-17T21:41:27.638Z,102048.62
2018-12-17T21:43:56.573Z,102050.80
2018-12-17T21:46:25.490Z,102047.64
2018-12-17T21:48:54.425Z,102052.83
2018-12-17T21:51:23.261Z,102048.44
2018-12-17T21:53:52.167Z,102046.59
2018-12-17T21:56:21.070Z,102057.03
2018-12-17T21:58:51.332Z,102053.55
2018-12-17T22:01:20.416Z,102058.80
2018-12-17T22:03:49.449Z,102055.26
2018-12-17T22:06:18.460Z,102062.22
2018-12-17T22:08:47.309Z,102069.17
2018-12-17T22:11:16.262Z,102075.73
2018-12-17T22:13:46.250Z,102074.88
2018-12-17T22:16:15.242Z,102080.06
2018-12-17T22:18:44.472Z,102077.34
2018-12-17T22:21:14.372Z,102079.44
2018-12-17T22:23:44.069Z,102084.63
2018-12-17T22:26:14.600Z,102088.03
2018-12-17T22:28:43.572Z,102089.80
2018-12-17T22:31:12.719Z,102086.33
2018-12-17T22:33:41.630Z,102083.77
2018-12-17T22:36:10.785Z,102085.61
2018-12-17T22:38:40.042Z,102092.79
2018-12-17T22:41:09.222Z,102089.90
2018-12-17T22:43:38.243Z,102091.73
2018-12-17T22:46:07.146Z,102083.98
2018-12-17T22:48:36.029Z,102096.72
2018-12-17T22:51:05.720Z,102092.94
2018-12-17T22:53:34.738Z,102093.46
2018-12-17T22:56:03.646Z,102096.88
2018-12-17T22:58:32.533Z,102091.99
2018-12-17T23:01:01.526Z,102093.17
2018-12-17T23:03:32.333Z,102098.30
2018-12-17T23:06:01.215Z,102090.36
2018-12-17T23:08:31.542Z,102095.02
2018-12-17T23:11:11.886Z,102095.81
2018-12-17T23:13:52.125Z,102087.54
2018-12-17T23:16:32.336Z,102084.39
2018-12-17T23:19:00.340Z,102093.48
2018-12-17T23:21:31.252Z,102086.86
2018-12-17T23:24:02.076Z,102088.95
2018-12-17T23:26:34.737Z,102086.72
2018-12-17T23:29:04.445Z,102087.97
2018-12-17T23:31:33.350Z,102086.20
2018-12-17T23:34:02.652Z,102092.30
2018-12-17T23:36:31.949Z,102087.91
2018-12-17T23:39:00.849Z,102086.59
2018-12-17T23:41:31.797Z,102084.36
2018-12-17T23:44:00.713Z,102080.42
2018-12-17T23:46:29.831Z,102081.21
2018-12-17T23:48:58.961Z,102075.96
2018-12-17T23:51:27.891Z,102076.88
2018-12-17T23:53:56.850Z,102076.09
2018-12-17T23:56:25.739Z,102071.89
2018-12-17T23:58:54.786Z,102071.95
